»·PEaware :: N149CD KVNY-KHND

N149CD :: KVNY-KHND

FLIGHT INFORMATION

Flight Status: Arrived
Operator: Privately registered:
United States
More flights under this callsign
Pilot: Nathan E. (30132)
Aircraft: CIRRUS VISIONJET
(SF50)
More flights by this aircraft type
Origin: KVNY Van Nuys
United States
Destination: KHND Henderson
United States
More flights between these airports :: More routes between these airports
Route: NUAL1 PMD HEC V21 BLD
File this flight plan on PilotEdge
Remarks:
Altitude:
(Current/Filed)
23,000ft
Speed:
(Current/Filed)
300kts
Departed: 29-Dec-20 12:33 PM
Arrived: 29-Dec-20 01:32 PM
Distance/Time
Traveled:
196nm/0:58
Distance/Time
To Go:
Arrived

Flight Plot

Page will automatically refresh every two minutes.

Flight plan parsing failed; only flown route is shown


Map Options




Map Legend


Flown Route
Filed Route
Departure Airport
Arrival Airport
Navaid (VOR, NDB)
Fix

Horizontal Profiles

Position Reports

Time Latitude Longitude Heading Altitude Ground
Speed
29-Dec-20 12:04 34.208083 -118.491775 90 805ft 0kts
29-Dec-20 12:05 34.208083 -118.491775 90 805ft 0kts
29-Dec-20 12:06 34.208083 -118.491775 90 805ft 0kts
29-Dec-20 12:07 34.208083 -118.491775 90 805ft 0kts
29-Dec-20 12:08 34.208083 -118.491775 90 805ft 0kts
29-Dec-20 12:09 34.208083 -118.491775 90 805ft 0kts
29-Dec-20 12:10 34.208083 -118.491775 90 805ft 0kts
29-Dec-20 12:11 34.208083 -118.491775 90 805ft 0kts
29-Dec-20 12:12 34.208083 -118.491775 90 805ft 0kts
29-Dec-20 12:13 34.208083 -118.491775 90 805ft 0kts
29-Dec-20 12:14 34.208083 -118.491775 90 805ft 0kts
29-Dec-20 12:14 34.208083 -118.491775 90 805ft 0kts
29-Dec-20 12:16 34.208083 -118.491775 90 805ft 0kts
29-Dec-20 12:17 34.208083 -118.491775 90 805ft 0kts
29-Dec-20 12:17 34.208083 -118.491775 90 805ft 0kts
29-Dec-20 12:18 34.208083 -118.491775 90 805ft 0kts
29-Dec-20 12:20 34.208083 -118.491775 90 805ft 0kts
29-Dec-20 12:20 34.208083 -118.491775 90 805ft 0kts
29-Dec-20 12:21 34.208083 -118.491775 90 805ft 0kts
29-Dec-20 12:22 34.208083 -118.491775 90 805ft 0kts
29-Dec-20 12:23 34.208083 -118.491775 90 805ft 0kts
29-Dec-20 12:24 34.208083 -118.491775 90 805ft 0kts
29-Dec-20 12:25 34.208083 -118.491775 90 805ft 0kts
29-Dec-20 12:26 34.207730 -118.491340 175 805ft 8kts
29-Dec-20 12:27 34.202794 -118.490820 168 805ft 21kts
29-Dec-20 12:28 34.198206 -118.490112 175 805ft 14kts
29-Dec-20 12:29 34.196682 -118.489901 359 805ft 0kts
29-Dec-20 12:30 34.196682 -118.489901 359 805ft 0kts
29-Dec-20 12:31 34.197061 -118.489768 81 805ft 6kts
29-Dec-20 12:32 34.215842 -118.490808 356 1100ft 163kts
29-Dec-20 12:33 34.241319 -118.529220 265 4032ft 232kts
29-Dec-20 12:34 34.230853 -118.611854 265 5580ft 263kts
29-Dec-20 12:35 34.219468 -118.698698 264 7974ft 256kts
29-Dec-20 12:36 34.240054 -118.769140 355 8031ft 230kts
29-Dec-20 12:37 34.270886 -118.724804 57 12033ft 168kts
29-Dec-20 12:38 34.292809 -118.674411 58 14459ft 175kts
29-Dec-20 12:39 34.315362 -118.621175 57 16640ft 182kts
29-Dec-20 12:40 34.338754 -118.565676 57 18617ft 189kts
29-Dec-20 12:41 34.362981 -118.508071 56 20406ft 196kts
29-Dec-20 12:42 34.390047 -118.450152 47 22026ft 199kts
29-Dec-20 12:43 34.424081 -118.395259 47 23245ft 218kts
29-Dec-20 12:44 34.465448 -118.329346 48 23248ft 267kts
29-Dec-20 12:45 34.512158 -118.254815 48 23250ft 287kts
29-Dec-20 12:46 34.561128 -118.176498 49 23250ft 294kts
29-Dec-20 12:47 34.610737 -118.096987 49 23247ft 297kts
29-Dec-20 12:48 34.638059 -118.002101 77 23243ft 310kts
29-Dec-20 12:49 34.649509 -117.898316 77 23235ft 311kts
29-Dec-20 12:50 34.679321 -117.806711 43 23725ft 279kts
29-Dec-20 12:51 34.715393 -117.729363 62 23225ft 272kts
29-Dec-20 12:52 34.735192 -117.635936 79 23218ft 300kts
29-Dec-20 12:53 34.741415 -117.533062 80 23219ft 308kts
29-Dec-20 12:54 34.747262 -117.428687 80 23223ft 311kts
29-Dec-20 12:55 34.753054 -117.323512 81 23227ft 312kts
29-Dec-20 12:56 34.758771 -117.218014 81 23227ft 312kts
29-Dec-20 12:57 34.764386 -117.112767 81 23226ft 313kts
29-Dec-20 12:58 34.769974 -117.006591 81 23226ft 316kts
29-Dec-20 12:59 34.775538 -116.898738 82 23227ft 322kts
29-Dec-20 13:00 34.781073 -116.789140 82 23228ft 327kts
29-Dec-20 13:01 34.786571 -116.678634 82 23227ft 328kts
29-Dec-20 13:02 34.791699 -116.572071 81 23199ft 325kts
29-Dec-20 13:03 34.791699 -116.572071 81 23199ft 325kts
29-Dec-20 13:04 34.794430 -116.516835 81 23198ft 321kts
29-Dec-20 13:05 34.827488 -116.424153 43 23198ft 300kts
29-Dec-20 13:06 34.883903 -116.349552 43 23204ft 299kts
29-Dec-20 13:07 34.940288 -116.275705 43 23206ft 295kts
29-Dec-20 13:08 34.995442 -116.203381 44 23199ft 288kts
29-Dec-20 13:09 35.049396 -116.132467 44 23186ft 281kts
29-Dec-20 13:10 35.101994 -116.063155 44 22922ft 272kts
29-Dec-20 13:11 35.149401 -116.000580 44 21850ft 241kts
29-Dec-20 13:12 35.195502 -115.939648 44 20777ft 243kts
29-Dec-20 13:13 35.241288 -115.878989 45 19689ft 242kts
29-Dec-20 13:14 35.286932 -115.818426 45 18597ft 242kts
29-Dec-20 13:15 35.332094 -115.758396 45 17512ft 242kts
29-Dec-20 13:16 35.377754 -115.697590 45 16411ft 243kts
29-Dec-20 13:17 35.423438 -115.636649 45 15306ft 243kts
29-Dec-20 13:18 35.469303 -115.575348 46 14194ft 244kts
29-Dec-20 13:19 35.515174 -115.513908 46 13080ft 245kts
29-Dec-20 13:20 35.568967 -115.463678 33 11965ft 245kts
29-Dec-20 13:21 35.625788 -115.417363 34 10847ft 247kts
29-Dec-20 13:22 35.683413 -115.370522 33 9724ft 249kts
29-Dec-20 13:23 35.741486 -115.323349 33 8615ft 252kts
29-Dec-20 13:24 35.793650 -115.280893 32 7500ft 203kts
29-Dec-20 13:25 35.839333 -115.243635 32 6389ft 194kts
29-Dec-20 13:26 35.877191 -115.212712 32 5342ft 141kts
29-Dec-20 13:27 35.900203 -115.175452 63 4329ft 140kts
29-Dec-20 13:28 35.914736 -115.144054 31 3616ft 90kts
29-Dec-20 13:29 35.937901 -115.135957 2 3155ft 87kts
29-Dec-20 13:30 35.961964 -115.135566 0 2522ft 83kts
29-Dec-20 13:31 35.970909 -115.135976 270 2443ft 0kts
29-Dec-20 13:32 35.970494 -115.138124 179 2439ft 6kts
29-Dec-20 13:33 35.970334 -115.138124 180 2440ft 0kts
29-Dec-20 13:34 35.970334 -115.138124 180 2440ft 0kts
29-Dec-20 13:35 35.970334 -115.138124 180 2440ft 0kts
29-Dec-20 13:36 35.970334 -115.138124 180 2440ft 0kts
29-Dec-20 13:37 35.970334 -115.138124 180 2440ft 0kts
29-Dec-20 13:39 35.970334 -115.138124 180 2440ft 0kts
29-Dec-20 13:40 35.970334 -115.138124 180 2440ft 0kts

Navigation Log

Ident Type
Flight plan parsing failed, navigation log unavailable